Massena International-Richards, NY

10:31 AM EST on March 02, 2015 (GMT -0500)
Massena International-Richards | Change Station
CLOSE
Current Station
Airport
Location: Massena,
Elevation: 213 ft
Nearby Weather Stations

Elev 213 ft 44.94 °N, 74.85 °W | Updated 38 minutes ago

Overcast
Overcast
21 °F
Feels Like 9 °F
N
13
Wind Variable Wind from WSW

Today
High -- | Low -- °F
--% Chance of Precip.
Yesterday
High -- | Low -- °F
Precip. -- in
6:35 AM 5:47 PM
Waxing Gibbous, 91% visible
Pressure 30.07 in
Visibility 9.0 miles
Clouds Mostly Cloudy 1900 ft
Mostly Cloudy 3200 ft
Overcast 5500 ft
Windchill 9 °F
Dew Point 18 °F
Humidity 86%
Rainfall 0.00 in
Snow Depth Not available.
UV 1 out of 12
Pollen .40 out of 12
Air Quality Not available.
Flu Activity Not available.
METAR KMSS 021453Z AUTO 25011KT 9SM BKN019 BKN032 OVC055 M06/M08 A3007

More Conditions Fewer Conditions

Pressure 30.07 in
Visibility 9.0 miles
Clouds Mostly Cloudy 1900 ft
Mostly Cloudy 3200 ft
Overcast 5500 ft
Windchill 9 °F
Dew Point 18 °F
Humidity 86%
Rainfall 0.00 in
Snow Depth Not available.
UV 1 out of 12
Pollen .40 out of 12
Air Quality Not available.
Flu Activity Not available.
METAR KMSS 021453Z AUTO 25011KT 9SM BKN019 BKN032 OVC055 M06/M08 A3007

More Conditions Fewer Conditions

10-Day Weather Forecast

Almanac

Astronomy

Mar. 02, 2015 Rise Set
Actual Time
Civil Twilight
Nautical Twilight
Astronomical Twilight
Moon
Length of Visible Light
Length of Day
Tomorrow will be .
, % of the Moon is Illuminated

Today's Extremes

State Highs State Lows

Community

WunderPhotos

Upload Photos

1,801,821 photos uploaded!

WunderBlogs® & News

Nearby

Air Quality

  Air Quality AQ Index Pollutant
Not available.

Snow Depth

Station Depth Elevation

Earthquake Activity

City Distance Mag. Time & Date
Minimum magnitude displayed is 2.5.

Coastal Water Temperatures

Place Temperature

Nearby Weather Stations